Time;durP1;ratioP1;P1;durP2;ratioP2;P2;SDS_P1;SDS_P2;PMS_P1;PMS_P2;Temp;Humidity;BMP_temperature;BMP_pressure;BME280_temperature;BME280_humidity;BME280_pressure;Samples;Min_cycle;Max_cycle;Signal;HPM_P1;HPM_P2
2022/01/29 00:03:13;;;;;;;2.73;1.10;;;;;;;2.90;50.32;101400.53;6463179;27;45869;-78
2022/01/29 00:06:33;;;;;;;3.00;1.07;;;;;;;3.10;50.19;101414.53;6498877;27;35464;-79
2022/01/29 00:09:49;;;;;;;5.17;1.23;;;;;;;2.88;50.61;101420.41;6474684;27;42979;-79
2022/01/29 00:13:08;;;;;;;0.93;0.80;;;;;;;3.10;50.43;101421.47;6485201;27;33606;-77
2022/01/29 00:16:32;;;;;;;2.53;0.90;;;;;;;3.67;49.17;101422.69;6475248;27;32533;-76
2022/01/29 00:19:48;;;;;;;2.40;0.90;;;;;;;3.55;49.56;101430.44;6499119;27;34898;-77
2022/01/29 00:22:59;;;;;;;4.83;1.00;;;;;;;3.37;49.59;101413.88;6485088;27;35961;-78
2022/01/29 00:26:11;;;;;;;5.93;1.10;;;;;;;3.10;50.83;101432.72;6499261;26;43643;-78
2022/01/29 00:29:22;;;;;;;4.60;0.90;;;;;;;3.46;49.28;101428.62;6523119;26;34135;-79
2022/01/29 00:32:33;;;;;;;4.00;0.90;;;;;;;2.99;50.29;101416.19;6485898;26;33965;-79
2022/01/29 00:35:48;;;;;;;1.97;0.97;;;;;;;3.31;49.30;101423.34;6533036;26;34686;-79
2022/01/29 00:39:00;;;;;;;3.83;1.10;;;;;;;2.75;51.00;101427.22;6524637;26;36117;-76
2022/01/29 00:42:10;;;;;;;3.37;1.00;;;;;;;3.22;49.55;101427.63;6502716;26;44732;-75
2022/01/29 00:45:21;;;;;;;1.70;0.90;;;;;;;2.94;50.80;101428.25;6519332;26;35689;-76
2022/01/29 00:48:46;;;;;;;3.03;0.90;;;;;;;3.00;50.79;101423.09;6496673;26;34271;-79
2022/01/29 00:51:55;;;;;;;3.40;0.93;;;;;;;2.58;52.12;101418.41;6514172;26;33923;-79
2022/01/29 00:55:10;;;;;;;3.30;1.00;;;;;;;2.80;52.48;101424.66;6517714;26;44683;-76
2022/01/29 00:58:18;;;;;;;2.90;1.20;;;;;;;2.26;54.41;101418.06;6519585;26;33522;-80
2022/01/29 01:01:25;;;;;;;2.30;1.30;;;;;;;2.37;54.46;101435.47;6529588;26;35804;-78
2022/01/29 01:04:39;;;;;;;7.40;1.03;;;;;;;2.77;53.47;101427.22;6538881;26;43258;-76
2022/01/29 01:07:44;;;;;;;4.13;1.17;;;;;;;3.12;52.75;101424.94;6541424;26;33453;-76
2022/01/29 01:10:55;;;;;;;3.17;0.73;;;;;;;2.40;54.62;101438.09;6532678;26;33935;-80
2022/01/29 01:14:04;;;;;;;7.10;0.97;;;;;;;2.71;53.43;101439.31;6518511;26;33683;-77
2022/01/29 01:17:13;;;;;;;1.83;0.93;;;;;;;2.54;54.11;101443.44;6534614;26;43341;-78
2022/01/29 01:20:17;;;;;;;3.77;1.13;;;;;;;2.19;55.71;101445.66;6521406;26;34552;-75
2022/01/29 01:23:23;;;;;;;3.07;1.00;;;;;;;2.00;56.02;101449.75;6535085;26;35316;-76
2022/01/29 01:26:29;;;;;;;5.43;1.40;;;;;;;2.37;55.32;101456.22;6495389;26;33023;-77
2022/01/29 01:29:44;;;;;;;5.40;1.00;;;;;;;1.90;56.33;101451.34;6502839;26;43361;-75
2022/01/29 01:32:55;;;;;;;6.17;1.13;;;;;;;1.54;57.80;101453.41;6505910;26;33310;-76
2022/01/29 01:36:05;;;;;;;3.13;1.13;;;;;;;1.57;57.03;101454.31;6552966;26;33920;-76
2022/01/29 01:39:21;;;;;;;;;;;;;;;2.14;55.08;101440.41;6516251;26;45401;-76
2022/01/29 01:42:28;;;;;;;2.92;0.95;;;;;;;2.15;54.22;101444.72;6525099;26;34909;-76
2022/01/29 01:45:31;;;;;;;6.53;1.30;;;;;;;1.91;54.56;101447.00;6539389;26;36434;-76
2022/01/29 01:48:40;;;;;;;2.33;0.97;;;;;;;1.90;54.42;101453.91;6491674;26;43413;-79
2022/01/29 01:51:49;;;;;;;6.30;1.43;;;;;;;1.96;54.53;101467.81;6483442;26;34976;-78
2022/01/29 01:55:04;;;;;;;3.87;1.30;;;;;;;1.97;54.22;101461.78;6519042;26;33492;-76
2022/01/29 01:58:12;;;;;;;5.03;1.20;;;;;;;1.84;54.69;101463.34;6508396;26;43433;-76
2022/01/29 02:01:22;;;;;;;4.10;1.33;;;;;;;2.21;53.99;101461.22;6499794;26;35042;-79
2022/01/29 02:04:34;;;;;;;3.53;1.53;;;;;;;2.34;53.91;101455.34;6491426;26;34441;-77
2022/01/29 02:07:42;;;;;;;3.53;1.50;;;;;;;1.91;55.54;101454.78;6507793;26;43639;-76
2022/01/29 02:10:57;;;;;;;2.50;1.00;;;;;;;1.84;56.19;101455.56;6527086;26;35054;-77
2022/01/29 02:14:03;;;;;;;4.57;1.30;;;;;;;1.96;55.52;101458.31;6515492;26;36162;-76
2022/01/29 02:17:10;;;;;;;3.03;1.20;;;;;;;2.32;54.50;101450.13;6535323;26;43097;-78
2022/01/29 02:20:26;;;;;;;2.57;1.20;;;;;;;1.85;55.88;101454.72;6529590;26;35569;-77
2022/01/29 02:23:57;;;;;;;4.13;1.20;;;;;;;1.63;55.49;101462.19;6515700;26;39224;-77
2022/01/29 02:27:03;;;;;;;3.47;0.80;;;;;;;1.70;55.12;101446.72;6509813;26;33444;-79
2022/01/29 02:30:29;;;;;;;3.27;1.17;;;;;;;1.84;53.95;101452.97;6525898;26;34091;-79
2022/01/29 02:33:41;;;;;;;4.57;1.57;;;;;;;2.03;53.07;101441.13;6477837;26;44395;-77
2022/01/29 02:36:53;;;;;;;3.40;1.30;;;;;;;1.69;54.10;101453.63;6505341;27;34162;-77
2022/01/29 02:40:07;;;;;;;4.73;1.10;;;;;;;2.36;52.58;101461.41;6475278;27;33394;-76
2022/01/29 02:43:19;;;;;;;6.03;1.53;;;;;;;1.94;53.45;101456.56;6484531;27;43174;-75
2022/01/29 02:46:42;;;;;;;3.20;1.60;;;;;;;2.02;53.84;101457.53;6482877;27;35591;-76
2022/01/29 02:50:00;;;;;;;7.10;1.37;;;;;;;1.59;55.06;101465.56;6502047;26;36552;-78
2022/01/29 02:53:11;;;;;;;4.97;1.10;;;;;;;1.67;54.99;101465.69;6493383;27;44897;-77
2022/01/29 02:56:19;;;;;;;2.63;1.10;;;;;;;1.42;55.29;101459.28;6458508;27;33465;-79
2022/01/29 02:59:33;;;;;;;3.23;1.20;;;;;;;1.57;54.68;101449.16;6478495;27;33618;-76
2022/01/29 03:02:40;;;;;;;2.03;1.20;;;;;;;1.73;53.68;101449.34;6503331;27;43923;-76
2022/01/29 03:05:52;;;;;;;1.63;0.90;;;;;;;1.79;53.06;101462.41;6483578;27;34568;-78
2022/01/29 03:09:06;;;;;;;2.13;0.90;;;;;;;1.77;53.20;101471.88;6508232;26;36107;-77
2022/01/29 03:12:16;;;;;;;2.07;1.10;;;;;;;1.81;53.01;101466.78;6493814;26;43950;-76
2022/01/29 03:15:22;;;;;;;1.90;1.00;;;;;;;2.07;52.39;101472.31;6525171;26;34429;-79
2022/01/29 03:18:25;;;;;;;4.27;1.33;;;;;;;1.97;52.32;101486.00;6508444;26;33585;-78
2022/01/29 03:21:34;;;;;;;2.00;0.80;;;;;;;2.00;52.13;101498.16;6511637;26;34142;-75
2022/01/29 03:24:48;;;;;;;3.73;1.10;;;;;;;1.72;52.45;101492.53;6477249;26;34412;-75
2022/01/29 03:27:54;;;;;;;3.40;0.93;;;;;;;2.05;51.47;101494.72;6483976;26;36863;-79
2022/01/29 03:31:01;;;;;;;3.07;1.40;;;;;;;2.03;51.51;101496.44;6533011;26;34309;-76
2022/01/29 03:34:06;;;;;;;;;;;;;;;2.01;51.08;101490.38;6525309;26;43184;-75
2022/01/29 03:37:13;;;;;;;3.27;1.20;;;;;;;2.04;51.35;101493.00;6511068;26;45066;-76
2022/01/29 03:40:18;;;;;;;4.10;1.20;;;;;;;1.93;51.34;101489.38;6512479;26;34958;-78
2022/01/29 03:43:32;;;;;;;1.50;1.10;;;;;;;2.04;51.22;101486.94;6485236;26;34774;-79
2022/01/29 03:46:47;;;;;;;2.97;1.30;;;;;;;2.01;50.72;101492.09;6503415;26;44418;-77
2022/01/29 03:49:51;;;;;;;2.43;1.00;;;;;;;2.26;50.55;101488.97;6489958;26;33437;-76
2022/01/29 03:53:10;;;;;;;3.67;1.07;;;;;;;2.27;49.63;101506.28;6475908;26;44633;-79
2022/01/29 03:56:22;;;;;;;3.30;1.00;;;;;;;1.88;50.55;101499.72;6471974;26;35407;-76
2022/01/29 03:59:30;;;;;;;4.63;1.47;;;;;;;2.07;50.08;101508.63;6468070;26;33032;-76
2022/01/29 04:02:39;;;;;;;3.97;1.17;;;;;;;2.19;49.61;101523.47;6467834;26;44666;-78
2022/01/29 04:05:50;;;;;;;3.50;1.50;;;;;;;2.33;49.60;101516.72;6475045;26;34262;-79
2022/01/29 04:09:09;;;;;;;1.80;1.10;;;;;;;2.30;49.44;101521.00;6493283;26;34115;-77
2022/01/29 04:12:20;;;;;;;7.30;1.73;;;;;;;1.93;50.40;101527.41;6474931;26;43558;-75
2022/01/29 04:15:32;;;;;;;6.17;1.50;;;;;;;1.93;50.67;101525.69;6476314;26;34864;-77
2022/01/29 04:18:44;;;;;;;4.17;1.33;;;;;;;2.42;49.50;101526.34;6472837;26;44424;-77
2022/01/29 04:21:56;;;;;;;2.90;0.93;;;;;;;1.93;50.88;101527.41;6497441;26;33673;-78
2022/01/29 04:25:09;;;;;;;8.37;1.43;;;;;;;2.35;49.88;101528.00;6468119;26;34105;-75
2022/01/29 04:28:25;;;;;;;6.03;1.03;;;;;;;1.83;51.07;101526.41;6517206;26;34442;-76
2022/01/29 04:31:58;;;;;;;4.77;1.27;;;;;;;2.03;50.63;101524.09;6480101;26;45867;-76
2022/01/29 04:35:06;;;;;;;3.03;1.33;;;;;;;2.42;49.82;101522.03;6489825;26;33692;-76
2022/01/29 04:38:18;;;;;;;5.43;1.87;;;;;;;1.93;50.59;101528.25;6452394;26;34886;-76
2022/01/29 04:41:24;;;;;;;9.40;2.17;;;;;;;1.98;50.84;101529.22;6484022;26;34320;-76
2022/01/29 04:44:38;;;;;;;3.77;1.37;;;;;;;2.59;49.20;101531.75;6492682;26;33480;-76
2022/01/29 04:47:47;;;;;;;5.47;1.37;;;;;;;1.63;51.70;101539.06;6476742;26;42977;-76
2022/01/29 04:50:52;;;;;;;3.27;1.00;;;;;;;2.11;50.55;101525.94;6535895;26;35417;-78
2022/01/29 04:54:01;;;;;;;5.20;1.27;;;;;;;2.06;50.43;101534.50;6459582;26;34084;-76
2022/01/29 04:57:10;;;;;;;2.67;1.17;;;;;;;1.93;50.85;101525.69;6487023;26;43482;-75
2022/01/29 05:00:22;;;;;;;5.63;1.53;;;;;;;2.31;50.04;101527.91;6525659;26;34835;-75
2022/01/29 05:03:30;;;;;;;5.37;1.50;;;;;;;1.94;50.42;101527.44;6529380;26;34535;-75
2022/01/29 05:06:47;;;;;;;6.60;1.47;;;;;;;1.95;50.23;101539.56;6503947;26;43480;-78
2022/01/29 05:09:57;;;;;;;2.80;0.87;;;;;;;2.27;49.51;101536.53;6522379;26;34085;-79
2022/01/29 05:13:13;;;;;;;6.00;1.33;;;;;;;2.45;49.15;101534.19;6470541;26;44272;-79
2022/01/29 05:30:02;;;;;;;4.43;1.47;;;;;;;2.64;48.22;101554.31;6524361;26;32718;-79
2022/01/29 05:33:10;;;;;;;3.03;1.30;;;;;;;2.86;47.36;101558.00;6520524;26;43929;-79
2022/01/29 05:36:21;;;;;;;6.27;2.20;;;;;;;3.04;46.22;101552.16;6515056;26;34896;-76
2022/01/29 05:39:37;;;;;;;7.30;1.90;;;;;;;3.44;45.70;101558.59;6526600;26;33453;-79
2022/01/29 05:42:55;;;;;;;3.30;1.27;;;;;;;3.56;45.01;101560.44;6541104;26;32989;-78
2022/01/29 05:46:05;;;;;;;6.43;1.60;;;;;;;3.05;46.30;101560.81;6506953;26;34656;-76
2022/01/29 05:49:12;;;;;;;4.77;1.50;;;;;;;3.02;46.77;101564.22;6494930;26;43148;-78
2022/01/29 05:52:21;;;;;;;6.13;1.37;;;;;;;3.17;46.42;101561.81;6515428;26;33836;-77
2022/01/29 05:55:40;;;;;;;5.60;1.40;;;;;;;2.55;47.48;101571.47;6480947;26;43185;-76
2022/01/29 05:58:50;;;;;;;2.27;1.17;;;;;;;2.50;47.46;101576.59;6527166;26;34142;-80
2022/01/29 06:01:59;;;;;;;4.87;1.60;;;;;;;3.00;46.48;101568.56;6515282;26;33671;-75
2022/01/29 06:05:06;;;;;;;3.27;1.20;;;;;;;3.55;44.76;101563.91;6552939;26;34684;-79
2022/01/29 06:08:33;;;;;;;6.47;1.50;;;;;;;2.78;46.03;101583.03;6492030;26;35143;-79
2022/01/29 06:11:39;;;;;;;3.27;1.10;;;;;;;3.56;44.64;101580.34;6526261;26;45111;-79
2022/01/29 06:14:50;;;;;;;6.20;1.63;;;;;;;3.03;46.27;101591.06;6504386;26;34411;-79
2022/01/29 06:17:59;;;;;;;4.03;1.60;;;;;;;2.50;47.02;101593.91;6534073;26;34152;-78
2022/01/29 06:21:09;;;;;;;4.10;1.50;;;;;;;2.49;46.61;101593.03;6516487;26;34282;-77
2022/01/29 06:24:18;;;;;;;4.20;1.40;;;;;;;2.83;45.92;101596.91;6525718;26;34932;-75
2022/01/29 06:27:38;;;;;;;10.20;2.03;;;;;;;3.64;44.57;101594.28;6491551;26;33458;-77
2022/01/29 06:30:49;;;;;;;6.63;2.27;;;;;;;3.43;44.94;101600.16;6487595;27;34553;-78
2022/01/29 06:34:04;;;;;;;;;;;;;;;3.97;43.32;101583.28;6492964;27;34486;-76
2022/01/29 06:37:13;;;;;;;4.67;1.57;;;;;;;3.63;43.91;101593.41;6471264;27;43656;-79
2022/01/29 06:40:25;;;;;;;6.73;1.80;;;;;;;2.74;46.12;101591.62;6451388;27;33783;-77
2022/01/29 06:43:36;;;;;;;6.20;1.70;;;;;;;3.33;44.82;101594.00;6443277;27;43458;-75
2022/01/29 06:46:44;;;;;;;5.50;1.53;;;;;;;4.02;43.17;101584.19;6484977;27;33747;-76
2022/01/29 06:49:51;;;;;;;5.40;2.00;;;;;;;4.01;43.00;101574.62;6491097;27;33690;-78
2022/01/29 06:52:55;;;;;;;3.90;1.40;;;;;;;3.58;43.20;101579.50;6464243;27;32871;-77
2022/01/29 06:56:12;;;;;;;3.27;1.60;;;;;;;3.93;42.76;101576.28;6407820;27;33062;-79
2022/01/29 06:59:16;;;;;;;5.97;1.50;;;;;;;4.55;41.26;101579.25;6410499;27;33877;-78
2022/01/29 07:02:24;;;;;;;4.07;1.50;;;;;;;3.93;42.44;101577.19;6457308;27;35821;-78
2022/01/29 07:05:34;;;;;;;3.00;1.27;;;;;;;3.78;42.75;101584.88;6432977;27;33913;-77
2022/01/29 07:08:49;;;;;;;3.28;1.48;;;;;;;4.04;42.09;101585.03;6444882;27;36502;-79
2022/01/29 07:12:07;;;;;;;6.60;1.57;;;;;;;3.55;43.33;101589.87;6426219;27;34354;-76
2022/01/29 07:15:19;;;;;;;2.37;1.23;;;;;;;4.20;41.55;101586.03;6433331;27;44650;-79
2022/01/29 07:18:29;;;;;;;6.93;1.37;;;;;;;4.58;40.08;101586.25;6443943;27;34544;-76
2022/01/29 07:21:52;;;;;;;7.13;1.37;;;;;;;4.71;39.93;101580.22;6430259;27;35555;-76
2022/01/29 07:25:10;;;;;;;5.13;1.67;;;;;;;4.23;40.53;101575.63;6434382;27;33823;-76
2022/01/29 07:28:57;;;;;;;2.97;1.17;;;;;;;5.07;38.42;101579.44;6415396;27;34853;-78
2022/01/29 07:32:11;;;;;;;3.57;1.30;;;;;;;4.95;38.49;101582.00;6429213;27;33630;-77
2022/01/29 07:35:26;;;;;;;4.90;1.53;;;;;;;5.46;37.60;101585.59;6461212;27;34958;-79
2022/01/29 07:38:38;;;;;;;5.93;1.50;;;;;;;4.48;38.90;101592.25;6458655;26;44411;-76
2022/01/29 07:41:46;;;;;;;7.27;2.17;;;;;;;3.82;40.55;101597.03;6437389;27;33991;-78
2022/01/29 07:44:54;;;;;;;9.03;2.43;;;;;;;4.42;39.26;101603.50;6477136;27;34527;-77
2022/01/29 07:48:04;;;;;;;5.33;1.80;;;;;;;4.88;39.32;101598.50;6475986;27;33576;-79
2022/01/29 07:51:19;;;;;;;6.50;1.43;;;;;;;3.92;41.69;101605.78;6487961;27;43302;-79
2022/01/29 07:54:51;;;;;;;6.63;2.20;;;;;;;4.79;41.14;101601.09;6516520;26;35086;-78
2022/01/29 07:58:11;;;;;;;8.20;2.10;;;;;;;4.62;42.30;101607.06;6508401;26;34783;-79
2022/01/29 08:01:34;;;;;;;6.70;1.90;;;;;;;4.53;43.04;101606.16;6504481;26;33777;-79
2022/01/29 08:04:47;;;;;;;4.93;2.17;;;;;;;4.19;43.85;101603.37;6516292;26;43137;-79
2022/01/29 08:07:56;;;;;;;5.77;1.80;;;;;;;3.56;46.17;101606.34;6482142;26;33145;-77
2022/01/29 08:11:00;;;;;;;9.93;2.05;;;;;;;4.06;45.00;101589.41;6511239;26;33263;-76
2022/01/29 08:14:22;;;;;;;5.87;2.10;;;;;;;4.43;44.03;101593.97;6488057;26;33308;-77
2022/01/29 08:17:48;;;;;;;5.03;2.00;;;;;;;4.18;43.43;101590.34;6524620;26;34626;-79
2022/01/29 08:21:06;;;;;;;5.70;1.80;;;;;;;4.57;42.97;101598.41;6507711;26;37725;-78
2022/01/29 08:24:26;;;;;;;6.00;2.10;;;;;;;4.50;43.09;101593.13;6465458;26;37702;-78
2022/01/29 08:27:38;;;;;;;6.50;2.03;;;;;;;4.34;43.52;101606.06;6483818;26;34472;-77
2022/01/29 08:30:50;;;;;;;7.50;2.10;;;;;;;4.76;42.83;101599.31;6479124;26;33094;-76
2022/01/29 08:34:07;;;;;;;8.37;2.50;;;;;;;4.88;41.91;101609.78;6500657;26;34766;-77
2022/01/29 08:37:23;;;;;;;7.73;3.67;;;;;;;3.92;43.81;101608.38;6526338;26;45769;-77
2022/01/29 08:40:44;;;;;;;6.97;1.83;;;;;;;4.54;42.92;101611.38;6505234;26;43137;-75
2022/01/29 08:43:51;;;;;;;4.83;1.70;;;;;;;5.33;40.76;101595.13;6539397;26;33896;-78
2022/01/29 08:47:06;;;;;;;7.80;1.87;;;;;;;6.12;38.39;101590.84;6510504;26;34123;-77
2022/01/29 08:50:29;;;;;;;9.67;2.30;;;;;;;5.91;39.46;101602.16;6497244;26;34462;-76
2022/01/29 08:53:44;;;;;;;7.50;1.90;;;;;;;5.61;39.15;101597.81;6523184;26;43354;-76
2022/01/29 08:56:55;;;;;;;8.27;2.70;;;;;;;5.03;40.10;101606.37;6490142;26;35201;-79
2022/01/29 09:00:03;;;;;;;6.67;1.60;;;;;;;5.82;38.71;101591.72;6480850;26;34524;-77
2022/01/29 09:03:32;;;;;;;4.87;1.70;;;;;;;5.56;38.63;101615.19;6482646;26;45056;-77
2022/01/29 09:06:52;;;;;;;8.70;2.30;;;;;;;5.44;38.21;101616.03;6507421;26;35658;-77
2022/01/29 09:10:08;;;;;;;7.47;2.20;;;;;;;5.10;38.80;101623.78;6474129;26;33839;-77
2022/01/29 09:13:28;;;;;;;8.80;2.10;;;;;;;5.76;37.49;101629.09;6483628;26;34901;-79
2022/01/29 09:16:58;;;;;;;9.13;2.33;;;;;;;5.67;37.54;101623.87;6497039;26;35797;-80
2022/01/29 09:20:12;;;;;;;7.00;1.80;;;;;;;5.59;38.28;101623.84;6492425;26;44883;-77
2022/01/29 09:23:16;;;;;;;4.73;1.80;;;;;;;5.78;39.01;101627.34;6459268;26;34542;-76
2022/01/29 09:26:20;;;;;;;6.00;2.13;;;;;;;5.57;40.07;101623.00;6453372;26;34254;-76
2022/01/29 09:29:37;;;;;;;8.13;2.40;;;;;;;5.67;39.81;101621.28;6465355;26;34247;-78
2022/01/29 09:32:53;;;;;;;4.27;1.87;;;;;;;5.99;39.16;101608.28;6518403;26;33800;-80
2022/01/29 09:36:00;;;;;;;6.40;1.70;;;;;;;5.33;40.04;101602.09;6520440;26;34739;-75
2022/01/29 09:39:03;;;;;;;8.90;1.90;;;;;;;6.10;38.97;101597.78;6504135;26;33353;-76
2022/01/29 09:42:16;;;;;;;5.20;2.20;;;;;;;5.31;40.05;101602.09;6528169;26;43817;-76
2022/01/29 09:45:30;;;;;;;5.50;2.17;;;;;;;6.07;38.74;101597.81;6426478;27;33664;-78
2022/01/29 09:48:39;;;;;;;10.80;2.10;;;;;;;6.77;37.00;101597.62;6425890;27;43611;-79
2022/01/29 09:51:49;;;;;;;6.10;2.20;;;;;;;6.47;37.74;101590.75;6429474;27;33278;-76
2022/01/29 09:55:02;;;;;;;5.73;1.80;;;;;;;6.91;36.88;101587.09;6400222;27;33150;-78
2022/01/29 09:58:14;;;;;;;6.17;1.90;;;;;;;6.85;36.75;101582.78;6382096;27;44479;-77
2022/01/29 10:01:29;;;;;;;7.10;1.87;;;;;;;7.54;35.52;101577.13;6391557;27;34551;-78
2022/01/29 10:04:53;;;;;;;5.67;1.93;;;;;;;6.87;35.72;101567.06;6354637;27;44529;-78
2022/01/29 10:08:05;;;;;;;7.97;2.10;;;;;;;6.35;37.44;101573.38;6336891;27;34754;-76
2022/01/29 10:11:19;;;;;;;5.67;2.10;;;;;;;6.05;38.78;101565.59;6365675;27;34436;-77
2022/01/29 10:14:25;;;;;;;7.60;1.90;;;;;;;7.18;36.58;101552.94;6367331;27;34055;-80
2022/01/29 10:17:49;;;;;;;6.27;2.17;;;;;;;7.47;35.77;101544.91;6336714;27;34919;-76
2022/01/29 10:21:15;;;;;;;7.90;2.60;;;;;;;6.13;38.75;101545.59;6332063;27;33904;-76
2022/01/29 10:24:21;;;;;;;9.03;1.97;;;;;;;6.11;39.04;101540.34;6417138;27;33748;-79
2022/01/29 10:27:32;;;;;;;8.60;2.10;;;;;;;6.21;38.71;101542.09;6412218;27;34454;-79
2022/01/29 10:30:52;;;;;;;5.13;1.80;;;;;;;6.42;39.03;101525.47;6424080;27;34487;-79
2022/01/29 10:34:00;;;;;;;8.43;2.43;;;;;;;5.76;40.51;101535.19;6492066;26;32981;-76
2022/01/29 10:37:15;;;;;;;9.20;3.10;;;;;;;6.18;40.08;101534.28;6506184;26;36809;-78
2022/01/29 10:40:27;;;;;;;7.47;2.20;;;;;;;7.36;37.83;101528.44;6555862;26;34840;-77
2022/01/29 10:43:55;;;;;;;8.00;2.27;;;;;;;6.75;38.35;101519.22;6500124;26;32834;-80
2022/01/29 10:47:02;;;;;;;13.20;3.23;;;;;;;6.67;39.29;101526.22;6533280;26;35686;-78
2022/01/29 10:50:15;;;;;;;10.67;2.50;;;;;;;6.88;39.31;101520.03;6513161;26;43841;-79
2022/01/29 10:53:24;;;;;;;9.47;2.50;;;;;;;7.11;39.48;101517.28;6511440;26;34033;-79
2022/01/29 10:56:30;;;;;;;9.50;2.50;;;;;;;7.21;40.19;101516.34;6513830;26;35081;-78
2022/01/29 10:59:46;;;;;;;9.93;3.10;;;;;;;7.65;39.19;101512.47;6388287;26;3453113;-78
2022/01/29 11:02:57;;;;;;;9.60;2.47;;;;;;;8.12;38.58;101506.78;6517705;26;33145;-77
2022/01/29 11:05:59;;;;;;;13.17;2.70;;;;;;;8.62;38.72;101509.69;6524641;26;35156;-79
2022/01/29 11:09:02;;;;;;;7.30;2.00;;;;;;;7.75;40.43;101514.13;6517153;26;33737;-79
2022/01/29 11:12:06;;;;;;;8.60;2.37;;;;;;;6.91;43.00;101511.31;6536773;26;44505;-77
2022/01/29 11:15:23;;;;;;;9.40;2.43;;;;;;;6.08;45.32;101505.59;6540195;26;34933;-76
2022/01/29 11:18:42;;;;;;;12.40;2.87;;;;;;;6.21;45.19;101504.66;6471994;27;33594;-78
2022/01/29 11:21:53;;;;;;;11.20;2.50;;;;;;;7.00;43.79;101495.56;6450663;27;33550;-76
2022/01/29 11:25:04;;;;;;;;;;;;;;;6.37;44.76;101500.25;6477955;26;33503;-80
2022/01/29 11:28:29;;;;;;;14.60;2.83;;;;;;;6.43;44.95;101487.16;6405889;27;44988;-79
2022/01/29 11:32:23;;;;;;;9.00;2.20;;;;;;;7.21;43.02;101477.13;6407616;27;34785;-78
2022/01/29 11:35:57;;;;;;;;;;;;;;;6.82;43.35;101469.53;6321474;27;35264;-77
2022/01/29 11:39:23;;;;;;;12.23;3.37;;;;;;;6.43;44.58;101480.19;6392683;27;34622;-79
2022/01/29 11:43:06;;;;;;;8.77;2.60;;;;;;;7.04;43.32;101460.69;6421846;27;44768;-79
2022/01/29 11:46:32;;;;;;;11.90;2.93;;;;;;;6.92;44.56;101469.47;6383812;27;45090;-80
2022/01/29 11:49:52;;;;;;;17.87;3.40;;;;;;;6.57;45.12;101469.72;6365246;27;44952;-75
2022/01/29 11:53:20;;;;;;;8.97;3.33;;;;;;;6.65;45.37;101456.59;6364450;27;33220;-79
2022/01/29 11:56:37;;;;;;;14.40;3.73;;;;;;;7.72;43.04;101453.09;6397513;27;45120;-78
2022/01/29 11:59:57;;;;;;;15.47;3.40;;;;;;;7.01;44.60;101451.09;6423987;27;33079;-76
2022/01/29 12:03:42;;;;;;;12.85;2.85;;;;;;;6.25;46.40;101448.97;6370583;27;43743;-77
2022/01/29 12:07:10;;;;;;;13.70;3.63;;;;;;;7.38;43.91;101432.50;6413080;27;34063;-76
2022/01/29 12:10:28;;;;;;;15.00;3.97;;;;;;;7.44;43.93;101440.28;6418149;27;34841;-79
2022/01/29 12:14:14;;;;;;;11.37;3.63;;;;;;;6.98;44.68;101435.47;6399574;27;35085;-79
2022/01/29 12:17:45;;;;;;;10.77;3.17;;;;;;;8.08;42.32;101421.28;6438402;27;33471;-76
2022/01/29 12:21:09;;;;;;;14.67;3.00;;;;;;;7.32;44.33;101422.97;6431000;27;34913;-78
2022/01/29 12:24:21;;;;;;;14.30;4.43;;;;;;;6.87;45.61;101408.53;6408224;27;35866;-77
2022/01/29 12:27:57;;;;;;;12.77;2.73;;;;;;;6.84;45.63;101408.56;6459184;27;34158;-79
2022/01/29 12:31:09;;;;;;;12.50;3.60;;;;;;;6.55;46.61;101394.81;6461129;26;33268;-76
2022/01/29 12:34:25;;;;;;;14.97;3.10;;;;;;;6.74;46.83;101380.75;6504176;26;44812;-78
2022/01/29 12:37:37;;;;;;;10.40;3.20;;;;;;;6.14;47.98;101378.53;6507087;26;33950;-79
2022/01/29 12:41:08;;;;;;;11.57;3.27;;;;;;;6.98;46.14;101364.88;6517434;26;43377;-77
2022/01/29 12:44:22;;;;;;;11.50;3.10;;;;;;;6.81;45.75;101356.31;6502853;26;34321;-76
2022/01/29 12:47:35;;;;;;;13.70;3.70;;;;;;;6.30;47.71;101354.94;6547526;26;34494;-77
2022/01/29 12:50:50;;;;;;;9.37;2.90;;;;;;;5.83;48.80;101356.03;6508013;26;44777;-77
2022/01/29 12:54:14;;;;;;;16.10;3.70;;;;;;;7.09;45.54;101351.72;6491199;26;34480;-78
2022/01/29 12:57:22;;;;;;;12.30;3.97;;;;;;;6.55;47.33;101347.81;6508097;26;34922;-78
2022/01/29 13:00:51;;;;;;;17.63;3.67;;;;;;;7.34;45.58;101341.87;6522763;26;34773;-76
2022/01/29 13:04:22;;;;;;;12.93;3.47;;;;;;;7.22;45.73;101334.19;6535786;26;33496;-77
2022/01/29 13:07:51;;;;;;;13.05;3.65;;;;;;;7.35;44.80;101340.16;6467545;26;44796;-78
2022/01/29 13:11:37;;;;;;;10.80;3.10;;;;;;;8.34;42.67;101325.78;6518424;26;33402;-76
2022/01/29 13:14:56;;;;;;;10.70;3.40;;;;;;;8.15;42.96;101327.78;6505774;26;34360;-77
2022/01/29 13:18:18;;;;;;;13.40;3.50;;;;;;;7.49;44.56;101333.00;6523918;26;44868;-77
2022/01/29 13:21:33;;;;;;;13.67;3.27;;;;;;;6.99;45.81;101332.63;6507753;26;33998;-78
2022/01/29 13:24:56;;;;;;;11.63;3.30;;;;;;;8.46;42.76;101322.13;6513361;26;43030;-78
2022/01/29 13:28:13;;;;;;;16.13;4.23;;;;;;;8.63;42.16;101317.47;6523098;26;34335;-79
2022/01/29 13:31:24;;;;;;;12.40;4.27;;;;;;;8.63;42.10;101312.22;6502891;26;35441;-77
2022/01/29 13:34:39;;;;;;;14.37;4.10;;;;;;;8.34;42.77;101317.91;6522239;26;33189;-79
2022/01/29 13:38:08;;;;;;;11.67;3.40;;;;;;;7.09;45.80;101316.88;6535040;26;33277;-78
2022/01/29 13:41:23;;;;;;;11.93;3.50;;;;;;;6.90;46.72;101313.56;6523651;26;44589;-76
2022/01/29 13:44:41;;;;;;;13.83;3.83;;;;;;;6.87;46.39;101314.44;6526736;26;34409;-77
2022/01/29 13:48:26;;;;;;;10.80;4.10;;;;;;;6.98;46.92;101307.38;6501288;26;37333;-78
2022/01/29 13:51:41;;;;;;;10.23;3.70;;;;;;;7.79;44.97;101296.00;6452390;27;44435;-77
2022/01/29 13:55:10;;;;;;;12.37;4.33;;;;;;;8.26;43.61;101293.59;6456613;27;35058;-78
2022/01/29 13:58:51;;;;;;;17.00;3.87;;;;;;;7.51;45.06;101292.00;6422968;27;34107;-77
2022/01/29 14:02:14;;;;;;;11.48;3.50;;;;;;;7.99;44.39;101289.62;6423825;27;34754;-79
2022/01/29 14:05:30;;;;;;;16.13;4.10;;;;;;;7.78;44.71;101283.78;6459195;27;33462;-79
2022/01/29 14:09:06;;;;;;;14.93;4.50;;;;;;;7.66;45.10;101283.06;6440716;27;44250;-80
2022/01/29 14:12:27;;;;;;;15.80;4.20;;;;;;;6.82;46.43;101269.19;6463957;27;44463;-79
2022/01/29 14:15:47;;;;;;;12.23;3.87;;;;;;;7.47;46.04;101261.50;6416887;27;34560;-77
2022/01/29 14:19:00;;;;;;;16.10;3.40;;;;;;;7.39;46.41;101251.16;6418486;27;35812;-79
2022/01/29 14:22:12;;;;;;;12.10;3.73;;;;;;;7.77;44.83;101229.72;6411694;27;43465;-79
2022/01/29 14:25:24;;;;;;;14.07;3.80;;;;;;;7.57;45.57;101234.38;6441489;27;33706;-77
2022/01/29 14:28:33;;;;;;;13.23;3.87;;;;;;;8.00;44.27;101218.91;6452871;27;33635;-76
2022/01/29 14:32:15;;;;;;;11.00;3.63;;;;;;;7.84;44.69;101227.88;6462490;27;34877;-76
2022/01/29 14:35:37;;;;;;;16.97;3.90;;;;;;;7.77;44.88;101219.25;6473288;27;34528;-77
2022/01/29 14:38:59;;;;;;;10.13;3.23;;;;;;;7.77;44.65;101224.47;6502281;26;43002;-76
2022/01/29 14:42:26;;;;;;;11.20;3.17;;;;;;;7.32;45.96;101218.12;6488790;27;34813;-78
2022/01/29 14:45:46;;;;;;;13.13;3.60;;;;;;;7.28;45.97;101213.81;6470329;27;44849;-79
2022/01/29 14:48:53;;;;;;;9.83;3.17;;;;;;;6.97;46.73;101214.19;6501101;26;32929;-79
2022/01/29 14:52:06;;;;;;;10.53;3.30;;;;;;;7.19;46.25;101214.78;6502637;27;44596;-79
2022/01/29 14:55:13;;;;;;;18.77;5.30;;;;;;;6.98;46.68;101215.91;6505288;27;44541;-78
2022/01/29 14:58:26;;;;;;;12.10;3.90;;;;;;;6.85;47.26;101213.44;6487638;26;33071;-79
2022/01/29 15:01:29;;;;;;;11.40;4.13;;;;;;;6.51;48.26;101201.59;6501632;27;34610;-77
2022/01/29 15:04:38;;;;;;;12.20;3.87;;;;;;;7.27;46.40;101196.37;6505411;26;34604;-76
2022/01/29 15:07:46;;;;;;;14.83;4.17;;;;;;;7.00;47.25;101195.84;6491884;27;44555;-80
2022/01/29 15:10:54;;;;;;;13.00;3.83;;;;;;;7.50;45.64;101181.25;6500313;27;34540;-76
2022/01/29 15:14:02;;;;;;;16.90;4.20;;;;;;;7.33;45.98;101180.62;6501068;26;33023;-77
2022/01/29 15:17:05;;;;;;;;;;;;;;;7.06;46.75;101177.47;6500341;27;44751;-78
2022/01/29 15:20:15;;;;;;;14.80;3.83;;;;;;;7.28;46.51;101169.37;6532924;26;33558;-79
2022/01/29 15:23:25;;;;;;;9.13;2.90;;;;;;;7.07;47.32;101163.50;6510725;26;33716;-77
2022/01/29 15:26:38;;;;;;;10.13;4.37;;;;;;;6.65;48.49;101164.03;6490455;27;35553;-79
2022/01/29 15:29:51;;;;;;;14.30;3.60;;;;;;;6.85;48.45;101153.34;6503355;27;33925;-79